Time;durP1;ratioP1;P1;durP2;ratioP2;P2;SDS_P1;SDS_P2;PMS_P1;PMS_P2;Temp;Humidity;BMP_temperature;BMP_pressure;BME280_temperature;BME280_humidity;BME280_pressure;Samples;Min_cycle;Max_cycle;Signal;HPM_P1;HPM_P2
2023/10/07 00:01:00;;;;;;;10.10;5.43;;;;;;;14.53;83.26;100489.00;10246585;28;20063;-73
2023/10/07 00:06:01;;;;;;;15.20;5.70;;;;;;;14.80;82.47;100524.03;10246721;28;20043;-72
2023/10/07 00:11:09;;;;;;;13.13;5.90;;;;;;;14.89;82.34;100517.53;10246980;28;20047;-72
2023/10/07 00:16:17;;;;;;;12.02;5.93;;;;;;;15.03;81.92;100534.53;10247383;28;20513;-72
2023/10/07 00:21:25;;;;;;;14.25;5.68;;;;;;;15.05;81.58;100525.31;10246549;28;20395;-72
2023/10/07 00:26:27;;;;;;;10.30;5.53;;;;;;;14.73;81.46;100472.34;10247120;28;20479;-72
2023/10/07 00:31:32;;;;;;;12.45;6.20;;;;;;;14.86;81.38;100495.72;10246672;28;20524;-72
2023/10/07 00:41:48;;;;;;;10.10;5.55;;;;;;;15.04;81.03;100534.34;10241158;28;20043;-72
2023/10/07 00:47:08;;;;;;;9.57;4.97;;;;;;;15.00;80.33;100541.09;10246480;28;20051;-72
2023/10/07 00:52:13;;;;;;;10.32;5.40;;;;;;;15.01;80.25;100541.94;10245815;28;20074;-72
2023/10/07 00:57:24;;;;;;;12.43;5.40;;;;;;;14.66;80.26;100495.50;10246024;28;20071;-72
2023/10/07 01:02:31;;;;;;;10.85;5.43;;;;;;;14.95;79.65;100548.88;10246105;28;20109;-72
2023/10/07 01:07:34;;;;;;;12.02;5.82;;;;;;;14.87;79.96;100543.66;10245936;28;20113;-72
2023/10/07 01:12:44;;;;;;;8.43;5.30;;;;;;;14.51;79.49;100504.44;10246269;28;20453;-72
2023/10/07 01:17:56;;;;;;;12.32;5.60;;;;;;;14.78;80.19;100551.00;10245593;28;20065;-72
2023/10/07 01:23:03;;;;;;;10.77;5.10;;;;;;;14.72;80.03;100542.91;10206307;29;20134;-72
2023/10/07 01:28:04;;;;;;;12.70;5.95;;;;;;;14.57;80.61;100541.09;10206371;29;20495;-72
2023/10/07 01:38:08;;;;;;;13.00;5.37;;;;;;;14.69;81.20;100552.13;10205258;29;20123;-72
2023/10/07 01:43:09;;;;;;;15.30;5.25;;;;;;;14.38;82.39;100520.28;10204923;29;20047;-74
2023/10/07 01:48:10;;;;;;;9.90;5.03;;;;;;;14.31;83.69;100540.78;10205322;29;20082;-72
2023/10/07 01:53:17;;;;;;;11.35;5.80;;;;;;;13.92;85.33;100502.69;10205303;29;20522;-72
2023/10/07 01:58:19;;;;;;;9.75;5.05;;;;;;;14.26;86.53;100567.22;10204656;29;20047;-73
2023/10/07 02:03:23;;;;;;;13.15;5.68;;;;;;;14.18;88.04;100572.66;10204171;29;20070;-73
2023/10/07 02:08:24;;;;;;;;;;;;;;;14.27;90.07;100572.38;10207499;29;20044;-74
2023/10/07 02:13:29;;;;;;;9.98;5.88;;;;;;;14.11;88.25;100586.75;10211700;29;20345;-72
2023/10/07 02:18:35;;;;;;;9.82;5.75;;;;;;;14.10;88.62;100558.38;10211314;29;20139;-72
2023/10/07 02:23:37;;;;;;;11.90;6.25;;;;;;;13.91;88.67;100527.75;10211259;29;20052;-72
2023/10/07 02:28:38;;;;;;;10.57;5.40;;;;;;;14.10;88.26;100553.06;10210564;29;20123;-72
2023/10/07 02:33:42;;;;;;;12.35;5.75;;;;;;;13.79;88.29;100510.53;10211587;29;20497;-75
2023/10/07 02:38:43;;;;;;;10.00;5.87;;;;;;;13.95;87.89;100535.38;10211461;28;20043;-72
2023/10/07 02:43:48;;;;;;;8.95;5.75;;;;;;;14.07;88.22;100552.59;10210679;29;20388;-72
2023/10/07 02:48:49;;;;;;;9.93;5.65;;;;;;;14.12;88.33;100556.38;10210558;29;20078;-72
2023/10/07 02:53:58;;;;;;;10.75;6.00;;;;;;;14.16;88.69;100570.19;10210211;29;20071;-72
2023/10/07 02:59:03;;;;;;;10.40;5.78;;;;;;;14.15;89.03;100573.88;10209944;29;20044;-73
2023/10/07 03:04:10;;;;;;;11.13;6.05;;;;;;;13.89;89.16;100526.28;10209978;29;20040;-72
2023/10/07 03:09:18;;;;;;;12.15;6.32;;;;;;;14.16;89.58;100581.69;10209429;29;20101;-72
2023/10/07 03:14:23;;;;;;;12.35;5.85;;;;;;;14.20;89.60;100602.69;10209074;29;20127;-73
2023/10/07 03:19:31;;;;;;;10.85;6.22;;;;;;;14.01;89.83;100572.88;10208341;29;20514;-73
2023/10/07 03:24:55;;;;;;;12.02;6.28;;;;;;;14.25;90.41;100611.81;10208865;29;20077;-73
2023/10/07 03:30:00;;;;;;;19.63;6.68;;;;;;;14.26;90.51;100602.78;10208480;28;20514;-72
2023/10/07 03:35:01;;;;;;;12.00;6.45;;;;;;;14.14;90.72;100591.72;10208902;29;20050;-72
2023/10/07 03:45:20;;;;;;;19.95;6.68;;;;;;;14.24;90.93;100615.50;10208166;28;20075;-73
2023/10/07 03:50:34;;;;;;;19.80;6.90;;;;;;;14.33;91.83;100613.56;10208864;29;20063;-73
2023/10/07 03:55:40;;;;;;;22.83;6.78;;;;;;;14.21;91.63;100591.84;10208620;29;20039;-73
2023/10/07 04:00:41;;;;;;;40.20;7.93;;;;;;;14.39;92.22;100607.47;10207897;29;20117;-73
2023/10/07 04:05:45;;;;;;;27.17;7.57;;;;;;;14.44;92.59;100622.94;10208634;29;20047;-74
2023/10/07 04:10:47;;;;;;;14.82;6.72;;;;;;;14.06;92.51;100567.81;10245516;28;20043;-73
2023/10/07 04:15:51;;;;;;;18.48;6.68;;;;;;;14.50;92.89;100636.38;10246809;28;20502;-73
2023/10/07 04:20:57;;;;;;;18.60;7.32;;;;;;;14.62;92.22;100634.09;10246851;28;20044;-73
2023/10/07 04:26:20;;;;;;;37.03;7.68;;;;;;;14.45;92.38;100589.84;10247011;28;20042;-73
2023/10/07 04:31:30;;;;;;;16.55;7.25;;;;;;;14.83;92.25;100646.69;10245804;28;20067;-73
2023/10/07 04:36:34;;;;;;;33.03;7.45;;;;;;;14.77;92.64;100639.41;10246077;28;20043;-73
2023/10/07 04:41:36;;;;;;;29.90;7.90;;;;;;;14.97;92.61;100663.72;10245878;28;20142;-73
2023/10/07 04:46:43;;;;;;;20.10;8.05;;;;;;;15.05;92.23;100660.94;10246543;28;20067;-73
2023/10/07 04:56:48;;;;;;;15.02;7.57;;;;;;;15.38;91.22;100679.19;10245765;28;20048;-73
2023/10/07 05:01:56;;;;;;;15.77;7.77;;;;;;;15.55;90.80;100688.59;10246628;28;20070;-73
2023/10/07 05:06:57;;;;;;;13.00;7.75;;;;;;;15.68;89.88;100680.72;10246003;28;20502;-73
2023/10/07 05:11:57;;;;;;;15.98;7.93;;;;;;;16.09;88.69;100676.47;10245285;28;20043;-73
2023/10/07 05:16:58;;;;;;;18.98;8.38;;;;;;;16.30;87.07;100688.97;10245762;28;20043;-75
2023/10/07 05:22:00;;;;;;;13.23;7.47;;;;;;;16.28;86.16;100659.72;10246255;28;20058;-75
2023/10/07 05:27:01;;;;;;;13.13;7.22;;;;;;;16.34;85.59;100691.09;10245663;28;20047;-75
2023/10/07 05:37:12;;;;;;;17.13;7.28;;;;;;;16.86;80.84;100678.16;12146021;23;20437;-76
2023/10/07 05:42:13;;;;;;;13.05;6.85;;;;;;;17.13;78.46;100665.63;10284732;28;20038;-76
2023/10/07 05:47:13;;;;;;;14.38;6.70;;;;;;;17.69;76.51;100707.44;10291730;28;20075;-75
2023/10/07 05:52:14;;;;;;;11.60;5.97;;;;;;;17.52;74.65;100659.50;10291259;28;20046;-77
2023/10/07 05:57:15;;;;;;;17.50;6.47;;;;;;;17.56;73.33;100651.88;10296594;28;20432;-75
2023/10/07 06:02:16;;;;;;;22.27;6.18;;;;;;;18.17;71.96;100704.56;10290428;28;20108;-75
2023/10/07 06:07:21;;;;;;;13.32;6.43;;;;;;;18.31;70.35;100697.28;10283368;28;20035;-76
2023/10/07 06:12:22;;;;;;;14.85;5.75;;;;;;;18.48;68.57;100701.19;10382503;28;20045;-76
2023/10/07 06:17:26;;;;;;;12.40;5.30;;;;;;;18.62;67.21;100707.38;10501926;28;20047;-76
2023/10/07 06:22:26;;;;;;;10.63;5.22;;;;;;;18.85;65.89;100706.91;10501013;28;20123;-76
2023/10/07 06:27:28;;;;;;;15.23;4.97;;;;;;;18.99;64.75;100721.13;10437585;28;20490;-75
2023/10/07 06:32:43;;;;;;;15.98;5.00;;;;;;;18.69;62.64;100694.69;10287036;28;20039;-75
2023/10/07 06:37:44;;;;;;;13.35;5.00;;;;;;;18.75;61.49;100715.41;10285501;28;20059;-75
2023/10/07 14:03:37;;;;;;;9.43;2.03;;;;;;;18.28;25.50;100598.22;10213736;29;20052;-79
2023/10/07 14:08:43;;;;;;;13.13;3.08;;;;;;;17.54;26.49;100528.50;10219595;29;20043;-89
2023/10/07 14:13:46;;;;;;;70.78;23.77;;;;;;;17.14;27.62;100514.31;10202381;29;20459;-91
2023/10/07 14:18:49;;;;;;;154.97;81.20;;;;;;;17.05;28.68;100561.13;10183213;29;20040;-87
2023/10/07 14:23:51;;;;;;;197.88;112.93;;;;;;;16.94;30.89;100613.56;10168381;29;20052;-89
2023/10/07 14:28:52;;;;;;;121.32;62.20;;;;;;;16.53;32.66;100610.94;10169377;29;20420;-91
2023/10/07 14:33:54;;;;;;;53.35;27.73;;;;;;;15.40;33.21;100497.78;10219283;29;20503;-93
2023/10/07 14:38:55;;;;;;;239.38;37.80;;;;;;;15.53;34.87;100586.22;10180652;29;20123;-90
2023/10/07 14:43:56;;;;;;;74.65;19.85;;;;;;;15.36;36.11;100630.34;10180767;29;20143;-91
2023/10/07 14:48:57;;;;;;;27.30;8.82;;;;;;;14.72;36.31;100594.53;10182145;29;20047;-87
2023/10/07 14:54:00;;;;;;;59.55;23.95;;;;;;;14.01;38.70;100527.44;10160622;29;20491;-89
2023/10/07 15:10:18;;;;;;;369.88;151.43;;;;;;;13.78;41.92;100629.00;10205132;29;20071;-95
2023/10/07 15:33:57;;;;;;;341.13;167.90;;;;;;;12.61;48.59;100633.66;10553573;27;20131;-84
2023/10/07 15:38:58;;;;;;;182.27;72.65;;;;;;;11.69;48.50;100520.66;10551780;28;20122;-85
2023/10/07 15:43:59;;;;;;;77.13;32.92;;;;;;;11.76;49.25;100580.19;10550856;28;20118;-85
2023/10/07 15:49:10;;;;;;;67.50;19.92;;;;;;;11.50;49.68;100556.47;10555619;28;20067;-82
2023/10/07 15:54:14;;;;;;;37.10;12.07;;;;;;;11.44;49.42;100557.97;10555722;28;20490;-82
2023/10/07 15:59:15;;;;;;;29.15;7.90;;;;;;;11.85;49.25;100603.16;10532015;28;20581;-85
2023/10/07 16:04:16;;;;;;;27.92;8.25;;;;;;;11.49;49.61;100557.47;10511183;28;20059;-86
2023/10/07 16:09:17;;;;;;;36.72;20.85;;;;;;;11.56;49.79;100585.03;10514772;28;20042;-85
2023/10/07 16:14:18;;;;;;;21.05;7.97;;;;;;;11.35;50.57;100564.28;10517672;28;20036;-86
2023/10/07 16:19:19;;;;;;;28.85;5.75;;;;;;;11.12;51.41;100578.22;10512603;28;20089;-84
2023/10/07 16:24:23;;;;;;;22.23;4.75;;;;;;;10.68;52.12;100543.16;10510803;28;20039;-86
2023/10/07 16:29:25;;;;;;;81.50;7.23;;;;;;;10.95;53.36;100608.50;10520422;28;20049;-83
2023/10/07 16:34:26;;;;;;;17.25;2.80;;;;;;;10.32;54.05;100537.25;10509503;28;20641;-82
2023/10/07 16:39:27;;;;;;;15.75;3.97;;;;;;;10.55;54.92;100611.88;10507747;28;20507;-83
2023/10/07 16:44:29;;;;;;;23.55;2.30;;;;;;;10.39;55.51;100578.94;10487829;28;20040;-83
2023/10/07 16:49:30;;;;;;;12.65;2.40;;;;;;;10.26;56.22;100563.47;10521074;28;20039;-83
2023/10/07 16:54:31;;;;;;;14.50;2.80;;;;;;;10.21;56.38;100562.25;10501259;28;20113;-86
2023/10/07 16:59:31;;;;;;;11.80;2.65;;;;;;;9.33;56.27;100422.75;10515910;28;20190;-87
2023/10/07 17:04:32;;;;;;;9.20;2.67;;;;;;;10.28;55.92;100616.41;10539289;28;20376;-82
2023/10/07 17:09:33;;;;;;;19.00;3.38;;;;;;;10.25;55.94;100579.53;10511580;28;20044;-82
2023/10/07 17:14:34;;;;;;;9.25;3.22;;;;;;;10.26;56.13;100602.41;10542372;28;20177;-85
2023/10/07 17:19:36;;;;;;;9.18;2.60;;;;;;;9.74;56.05;100533.50;10538940;28;20043;-81
2023/10/07 17:24:41;;;;;;;16.40;2.88;;;;;;;10.21;57.59;100567.56;10520092;28;20044;-84
2023/10/07 17:29:42;;;;;;;10.65;2.28;;;;;;;10.11;56.63;100577.47;10500182;28;20565;-82
2023/10/07 17:34:42;;;;;;;16.23;2.58;;;;;;;9.84;57.45;100574.00;10500866;28;20063;-83
2023/10/07 17:39:43;;;;;;;17.52;3.25;;;;;;;9.60;57.55;100527.81;10530694;28;20072;-85
2023/10/07 17:44:44;;;;;;;15.20;3.08;;;;;;;9.88;57.95;100585.16;10540193;28;20040;-84
2023/10/07 17:49:45;;;;;;;28.95;4.00;;;;;;;9.75;58.38;100573.16;10541333;28;20206;-85
2023/10/07 17:54:47;;;;;;;49.20;5.45;;;;;;;9.25;58.86;100501.41;10520218;28;20380;-84
2023/10/07 17:59:48;;;;;;;34.58;4.47;;;;;;;9.23;59.25;100514.81;10540261;28;20052;-84
2023/10/07 18:04:49;;;;;;;19.10;8.10;;;;;;;9.55;59.51;100567.22;10540524;28;20048;-83
2023/10/07 18:09:50;;;;;;;45.42;14.23;;;;;;;9.52;59.42;100562.22;10517370;28;20510;-86
2023/10/07 18:14:50;;;;;;;53.63;14.73;;;;;;;9.05;59.24;100487.50;10498483;28;20063;-84
2023/10/07 18:19:51;;;;;;;37.20;13.15;;;;;;;9.29;59.47;100537.22;10499175;28;20040;-86
2023/10/07 18:24:52;;;;;;;28.20;12.40;;;;;;;8.65;59.57;100442.00;10521364;28;20036;-81
2023/10/07 18:29:53;;;;;;;27.17;10.90;;;;;;;9.14;59.55;100519.22;10497321;28;20113;-81
2023/10/07 18:34:54;;;;;;;19.33;8.63;;;;;;;8.86;60.00;100456.75;10497870;28;20047;-81
2023/10/07 18:39:54;;;;;;;23.83;6.80;;;;;;;9.01;59.91;100510.84;10497134;28;20048;-81
2023/10/07 18:44:55;;;;;;;18.65;5.88;;;;;;;9.01;59.45;100515.31;10497029;28;20047;-80
2023/10/07 18:49:56;;;;;;;24.98;5.10;;;;;;;8.91;59.50;100513.59;10500548;28;20047;-80
2023/10/07 18:54:57;;;;;;;19.33;4.97;;;;;;;9.02;59.61;100511.66;10531696;28;20039;-81
2023/10/07 18:59:58;;;;;;;12.82;4.25;;;;;;;8.80;59.77;100473.25;10519958;28;20123;-82
2023/10/07 19:04:59;;;;;;;19.77;4.65;;;;;;;8.74;60.73;100468.56;10494991;28;20040;-82
2023/10/07 19:10:00;;;;;;;20.90;4.90;;;;;;;8.79;61.49;100500.72;10495790;28;20396;-82
2023/10/07 19:15:01;;;;;;;14.00;5.05;;;;;;;8.70;62.25;100505.09;10495855;28;20037;-81
2023/10/07 19:20:02;;;;;;;27.13;6.22;;;;;;;8.61;62.91;100498.88;10496178;28;20044;-82
2023/10/07 19:25:04;;;;;;;21.50;5.80;;;;;;;8.49;62.77;100492.16;10494817;28;20044;-80
2023/10/07 19:30:06;;;;;;;20.48;7.40;;;;;;;8.46;62.60;100460.69;10518433;28;20139;-80
2023/10/07 19:35:07;;;;;;;24.20;8.70;;;;;;;8.28;62.71;100422.78;10530247;28;20090;-79
2023/10/07 19:40:08;;;;;;;58.45;9.80;;;;;;;8.48;63.37;100452.63;10507978;28;20040;-79
2023/10/07 19:45:10;;;;;;;47.40;8.45;;;;;;;8.24;63.07;100438.94;10494898;28;20037;-79
2023/10/07 19:50:11;;;;;;;18.98;7.25;;;;;;;8.23;63.03;100436.47;10494962;28;20048;-79
2023/10/07 19:55:12;;;;;;;25.98;7.35;;;;;;;8.16;62.95;100422.16;10495563;28;20161;-80
2023/10/07 20:00:14;;;;;;;25.23;6.68;;;;;;;8.34;62.96;100430.09;10494870;28;20043;-80
2023/10/07 20:05:17;;;;;;;31.10;7.10;;;;;;;8.46;62.92;100434.22;10495060;28;20512;-80
2023/10/07 20:10:18;;;;;;;36.22;7.60;;;;;;;8.38;63.22;100418.25;10493833;28;20537;-80
2023/10/07 20:15:18;;;;;;;30.05;8.75;;;;;;;8.28;62.99;100407.72;10495675;28;20043;-80
2023/10/07 20:20:19;;;;;;;42.95;8.07;;;;;;;8.08;63.33;100382.41;10501583;28;20052;-80
2023/10/07 20:25:21;;;;;;;41.08;8.90;;;;;;;8.00;63.56;100375.22;10502407;28;20041;-80
2023/10/07 20:30:22;;;;;;;20.42;6.75;;;;;;;8.06;62.53;100371.97;10502290;28;20118;-80
2023/10/07 20:35:23;;;;;;;23.45;6.53;;;;;;;8.08;62.85;100359.44;10501628;28;20082;-80
2023/10/07 20:40:24;;;;;;;23.48;5.88;;;;;;;7.96;62.36;100340.31;10501962;28;20094;-80
2023/10/07 20:45:25;;;;;;;14.75;5.05;;;;;;;7.27;61.85;100232.56;10500377;28;20032;-80
2023/10/07 20:50:26;;;;;;;20.02;6.97;;;;;;;7.97;61.78;100338.47;10500926;28;20052;-80
2023/10/07 20:55:26;;;;;;;29.17;6.40;;;;;;;7.72;60.27;100293.31;10501998;28;20050;-80
2023/10/07 21:00:27;;;;;;;24.73;8.13;;;;;;;7.82;61.94;100326.78;10499947;28;20041;-80
2023/10/07 21:05:28;;;;;;;19.70;7.10;;;;;;;8.02;62.47;100344.16;10501243;28;20560;-80
2023/10/07 21:10:28;;;;;;;34.05;7.07;;;;;;;7.93;62.46;100315.97;10500654;28;20044;-80
2023/10/07 21:15:35;;;;;;;29.20;8.00;;;;;;;8.11;64.37;100345.06;10529257;28;20040;-80
2023/10/07 21:20:39;;;;;;;32.78;7.85;;;;;;;7.60;63.51;100313.00;10542801;28;20586;-80
2023/10/07 21:25:46;;;;;;;25.67;7.25;;;;;;;7.61;64.82;100319.94;10541394;28;20046;-80
2023/10/07 21:30:48;;;;;;;31.58;6.82;;;;;;;7.20;64.62;100274.56;10541756;28;20100;-80
2023/10/07 21:35:49;;;;;;;24.95;5.80;;;;;;;7.11;64.79;100280.75;10542018;28;20054;-80
2023/10/07 21:40:50;;;;;;;28.58;5.38;;;;;;;7.22;64.62;100295.56;10540828;28;20043;-80
2023/10/07 21:45:51;;;;;;;14.70;5.88;;;;;;;7.04;64.62;100269.09;10541160;28;20046;-80
2023/10/07 21:50:53;;;;;;;30.80;5.95;;;;;;;7.12;65.46;100293.00;10541060;28;20075;-80
2023/10/07 21:55:53;;;;;;;20.05;5.13;;;;;;;7.24;65.80;100325.28;10541329;28;20044;-80
2023/10/07 22:00:57;;;;;;;20.40;5.38;;;;;;;7.15;65.63;100321.75;10540074;28;20082;-80
2023/10/07 22:05:58;;;;;;;17.73;5.28;;;;;;;7.06;65.33;100315.53;10539902;28;20059;-80
2023/10/07 22:10:59;;;;;;;28.02;5.10;;;;;;;7.12;64.47;100297.41;10540350;28;20071;-80
2023/10/07 22:15:59;;;;;;;15.32;4.95;;;;;;;6.57;64.03;100188.16;10540440;28;20035;-80
2023/10/07 22:21:03;;;;;;;14.40;4.72;;;;;;;6.77;64.21;100204.75;10539406;28;20102;-80
2023/10/07 22:26:07;;;;;;;13.23;4.88;;;;;;;7.46;64.18;100326.72;10539674;28;20043;-80
2023/10/07 22:31:11;;;;;;;;;;;;;;;7.65;64.40;100323.94;10539587;28;20541;-79
2023/10/07 22:36:21;;;;;;;19.17;5.18;;;;;;;7.49;64.34;100318.50;10532658;28;19926;-79
2023/10/07 22:41:49;;;;;;;18.50;5.10;;;;;;;7.32;64.45;100305.09;10455399;28;20037;-79
2023/10/07 22:46:46;;;;;;;33.97;5.72;;;;;;;7.39;64.61;100310.63;10476443;28;20114;-80
2023/10/07 22:51:47;;;;;;;14.68;5.57;;;;;;;7.36;64.50;100292.44;10497165;28;20040;-80
2023/10/07 22:56:48;;;;;;;16.48;6.88;;;;;;;7.51;64.01;100303.34;10495940;28;20036;-80
2023/10/07 23:01:48;;;;;;;17.92;6.55;;;;;;;7.19;63.96;100241.22;10496107;28;20093;-80
2023/10/07 23:06:56;;;;;;;18.40;6.43;;;;;;;7.55;64.98;100294.94;10496316;28;20041;-80
2023/10/07 23:12:02;;;;;;;19.63;6.28;;;;;;;7.10;65.50;100257.94;10496438;28;20052;-80
2023/10/07 23:17:04;;;;;;;19.33;6.85;;;;;;;7.11;66.63;100280.75;10494756;28;20048;-80
2023/10/07 23:22:14;;;;;;;26.88;6.18;;;;;;;7.17;66.67;100296.00;10494983;28;20122;-80
2023/10/07 23:27:21;;;;;;;32.10;6.95;;;;;;;7.03;67.47;100278.84;10495410;28;20499;-80
2023/10/07 23:37:30;;;;;;;31.73;7.22;;;;;;;6.98;67.65;100285.53;10495224;28;20041;-80
2023/10/07 23:42:32;;;;;;;24.55;6.05;;;;;;;6.92;68.27;100291.41;10496423;28;20036;-80
2023/10/07 23:47:33;;;;;;;16.75;5.43;;;;;;;6.92;68.39;100294.06;10495889;28;20051;-80
2023/10/07 23:52:37;;;;;;;21.95;6.25;;;;;;;6.88;68.88;100297.94;10498736;28;20416;-80
2023/10/07 23:57:38;;;;;;;34.75;6.20;;;;;;;6.85;68.93;100293.81;10503479;28;20047;-80
